sensor_id;sensor_type;location;lat;lon;timestamp;temperature;humidity
15452;DHT22;7827;53.594;9.938;2023-05-25T00:02:25;11.00;1.00
15452;DHT22;7827;53.594;9.938;2023-05-25T00:04:53;11.00;1.00
15452;DHT22;7827;53.594;9.938;2023-05-25T00:07:24;11.00;1.00
15452;DHT22;7827;53.594;9.938;2023-05-25T00:09:52;11.00;1.00
15452;DHT22;7827;53.594;9.938;2023-05-25T00:12:20;10.90;1.00
15452;DHT22;7827;53.594;9.938;2023-05-25T00:14:49;10.90;1.00
15452;DHT22;7827;53.594;9.938;2023-05-25T00:17:18;10.90;1.00
15452;DHT22;7827;53.594;9.938;2023-05-25T00:19:47;10.90;1.00
15452;DHT22;7827;53.594;9.938;2023-05-25T00:22:16;10.80;1.00
15452;DHT22;7827;53.594;9.938;2023-05-25T00:24:46;10.80;5.90
15452;DHT22;7827;53.594;9.938;2023-05-25T00:27:14;10.70;46.60
15452;DHT22;7827;53.594;9.938;2023-05-25T00:29:43;10.70;20.60
15452;DHT22;7827;53.594;9.938;2023-05-25T00:32:11;10.70;77.30
15452;DHT22;7827;53.594;9.938;2023-05-25T00:34:41;10.60;91.30
15452;DHT22;7827;53.594;9.938;2023-05-25T00:37:09;10.60;99.90
15452;DHT22;7827;53.594;9.938;2023-05-25T00:39:38;10.60;85.90
15452;DHT22;7827;53.594;9.938;2023-05-25T00:42:07;10.60;94.70
15452;DHT22;7827;53.594;9.938;2023-05-25T00:44:35;10.60;92.70
15452;DHT22;7827;53.594;9.938;2023-05-25T00:47:04;10.70;94.90
15452;DHT22;7827;53.594;9.938;2023-05-25T00:49:34;10.70;63.60
15452;DHT22;7827;53.594;9.938;2023-05-25T00:52:04;10.60;46.40
15452;DHT22;7827;53.594;9.938;2023-05-25T00:54:33;10.60;63.50
15452;DHT22;7827;53.594;9.938;2023-05-25T00:57:06;10.50;69.00
15452;DHT22;7827;53.594;9.938;2023-05-25T00:59:37;10.50;84.90
15452;DHT22;7827;53.594;9.938;2023-05-25T01:02:09;10.50;90.60
15452;DHT22;7827;53.594;9.938;2023-05-25T01:04:46;10.50;89.90
15452;DHT22;7827;53.594;9.938;2023-05-25T01:07:21;10.50;99.90
15452;DHT22;7827;53.594;9.938;2023-05-25T01:09:55;10.50;99.90
15452;DHT22;7827;53.594;9.938;2023-05-25T01:12:26;10.50;99.90
15452;DHT22;7827;53.594;9.938;2023-05-25T01:14:57;10.40;98.50
15452;DHT22;7827;53.594;9.938;2023-05-25T01:17:28;10.40;99.90
15452;DHT22;7827;53.594;9.938;2023-05-25T01:19:57;10.40;99.90
15452;DHT22;7827;53.594;9.938;2023-05-25T01:22:41;10.40;99.90
15452;DHT22;7827;53.594;9.938;2023-05-25T01:25:18;10.40;99.90
15452;DHT22;7827;53.594;9.938;2023-05-25T01:27:53;10.40;99.90
15452;DHT22;7827;53.594;9.938;2023-05-25T01:30:25;10.30;99.90
15452;DHT22;7827;53.594;9.938;2023-05-25T01:32:55;10.40;99.90
15452;DHT22;7827;53.594;9.938;2023-05-25T01:35:24;10.30;99.90
15452;DHT22;7827;53.594;9.938;2023-05-25T01:37:57;10.40;99.90
15452;DHT22;7827;53.594;9.938;2023-05-25T01:40:26;10.40;99.90
15452;DHT22;7827;53.594;9.938;2023-05-25T01:42:55;10.30;99.90
15452;DHT22;7827;53.594;9.938;2023-05-25T01:45:24;10.30;99.90
15452;DHT22;7827;53.594;9.938;2023-05-25T01:48:01;10.30;99.90
15452;DHT22;7827;53.594;9.938;2023-05-25T01:50:39;10.30;99.90
15452;DHT22;7827;53.594;9.938;2023-05-25T01:53:18;10.40;99.90
15452;DHT22;7827;53.594;9.938;2023-05-25T01:55:52;10.30;99.90
15452;DHT22;7827;53.594;9.938;2023-05-25T01:58:25;10.20;99.90
15452;DHT22;7827;53.594;9.938;2023-05-25T02:00:56;10.20;99.90
15452;DHT22;7827;53.594;9.938;2023-05-25T02:03:25;10.30;99.90
15452;DHT22;7827;53.594;9.938;2023-05-25T02:05:54;10.20;99.90
15452;DHT22;7827;53.594;9.938;2023-05-25T02:08:25;10.20;99.90
15452;DHT22;7827;53.594;9.938;2023-05-25T02:10:53;10.20;99.90
15452;DHT22;7827;53.594;9.938;2023-05-25T02:13:21;10.10;99.90
15452;DHT22;7827;53.594;9.938;2023-05-25T02:15:50;10.20;99.90
15452;DHT22;7827;53.594;9.938;2023-05-25T02:18:18;10.10;99.90
15452;DHT22;7827;53.594;9.938;2023-05-25T02:20:48;10.10;99.90
15452;DHT22;7827;53.594;9.938;2023-05-25T02:23:18;10.10;99.90
15452;DHT22;7827;53.594;9.938;2023-05-25T02:25:47;10.20;99.90
15452;DHT22;7827;53.594;9.938;2023-05-25T02:28:17;10.20;99.90
15452;DHT22;7827;53.594;9.938;2023-05-25T02:30:46;10.10;99.90
15452;DHT22;7827;53.594;9.938;2023-05-25T02:33:14;10.10;99.90
15452;DHT22;7827;53.594;9.938;2023-05-25T02:35:42;10.10;99.90
15452;DHT22;7827;53.594;9.938;2023-05-25T02:38:11;10.20;99.90
15452;DHT22;7827;53.594;9.938;2023-05-25T02:40:40;10.10;99.90
15452;DHT22;7827;53.594;9.938;2023-05-25T02:43:10;10.10;99.90
15452;DHT22;7827;53.594;9.938;2023-05-25T02:45:38;10.20;99.90
15452;DHT22;7827;53.594;9.938;2023-05-25T02:48:07;10.20;99.90
15452;DHT22;7827;53.594;9.938;2023-05-25T02:50:35;10.30;99.90
15452;DHT22;7827;53.594;9.938;2023-05-25T02:53:08;10.30;99.90
15452;DHT22;7827;53.594;9.938;2023-05-25T02:55:37;10.30;99.90
15452;DHT22;7827;53.594;9.938;2023-05-25T02:58:10;10.20;99.90
15452;DHT22;7827;53.594;9.938;2023-05-25T03:01:16;10.30;99.90
15452;DHT22;7827;53.594;9.938;2023-05-25T03:03:53;10.20;99.90
15452;DHT22;7827;53.594;9.938;2023-05-25T03:06:23;10.20;99.90
15452;DHT22;7827;53.594;9.938;2023-05-25T03:08:56;10.20;99.90
15452;DHT22;7827;53.594;9.938;2023-05-25T03:11:25;10.20;99.90
15452;DHT22;7827;53.594;9.938;2023-05-25T03:13:57;10.10;99.90
15452;DHT22;7827;53.594;9.938;2023-05-25T03:16:27;10.00;99.90
15452;DHT22;7827;53.594;9.938;2023-05-25T03:18:57;10.00;99.90
15452;DHT22;7827;53.594;9.938;2023-05-25T03:21:25;10.00;99.90
15452;DHT22;7827;53.594;9.938;2023-05-25T03:23:54;10.10;99.90
15452;DHT22;7827;53.594;9.938;2023-05-25T03:26:22;10.10;99.90
15452;DHT22;7827;53.594;9.938;2023-05-25T03:28:52;10.00;99.90
15452;DHT22;7827;53.594;9.938;2023-05-25T03:31:22;10.00;99.90
15452;DHT22;7827;53.594;9.938;2023-05-25T03:33:51;10.00;99.90
15452;DHT22;7827;53.594;9.938;2023-05-25T03:36:21;10.00;99.90
15452;DHT22;7827;53.594;9.938;2023-05-25T03:38:53;10.00;99.90
15452;DHT22;7827;53.594;9.938;2023-05-25T03:41:21;10.00;99.90
15452;DHT22;7827;53.594;9.938;2023-05-25T03:43:50;10.00;99.90
15452;DHT22;7827;53.594;9.938;2023-05-25T03:46:21;9.90;99.90
15452;DHT22;7827;53.594;9.938;2023-05-25T03:48:50;10.00;99.90
15452;DHT22;7827;53.594;9.938;2023-05-25T03:51:18;9.90;99.90
15452;DHT22;7827;53.594;9.938;2023-05-25T03:53:46;9.90;99.90
15452;DHT22;7827;53.594;9.938;2023-05-25T03:56:15;9.90;99.90
15452;DHT22;7827;53.594;9.938;2023-05-25T03:58:43;9.90;99.90
15452;DHT22;7827;53.594;9.938;2023-05-25T04:01:11;9.90;99.90
15452;DHT22;7827;53.594;9.938;2023-05-25T04:03:41;9.90;99.90
15452;DHT22;7827;53.594;9.938;2023-05-25T04:06:10;10.00;99.90
15452;DHT22;7827;53.594;9.938;2023-05-25T04:08:38;10.00;99.90
15452;DHT22;7827;53.594;9.938;2023-05-25T04:11:07;9.90;99.90
15452;DHT22;7827;53.594;9.938;2023-05-25T04:13:35;10.00;99.90
15452;DHT22;7827;53.594;9.938;2023-05-25T04:16:07;9.90;99.90
15452;DHT22;7827;53.594;9.938;2023-05-25T04:18:36;9.90;99.90
15452;DHT22;7827;53.594;9.938;2023-05-25T04:21:05;9.90;99.90
15452;DHT22;7827;53.594;9.938;2023-05-25T04:23:34;9.90;99.90
15452;DHT22;7827;53.594;9.938;2023-05-25T04:26:04;9.90;99.90
15452;DHT22;7827;53.594;9.938;2023-05-25T04:28:38;9.80;99.90
15452;DHT22;7827;53.594;9.938;2023-05-25T04:31:30;9.90;99.90
15452;DHT22;7827;53.594;9.938;2023-05-25T04:34:25;9.90;99.90
15452;DHT22;7827;53.594;9.938;2023-05-25T04:37:11;9.90;99.90
15452;DHT22;7827;53.594;9.938;2023-05-25T04:39:40;9.90;99.90
15452;DHT22;7827;53.594;9.938;2023-05-25T04:42:08;10.10;99.90
15452;DHT22;7827;53.594;9.938;2023-05-25T04:44:36;10.20;99.90
15452;DHT22;7827;53.594;9.938;2023-05-25T04:47:06;10.30;99.90
15452;DHT22;7827;53.594;9.938;2023-05-25T04:49:35;10.40;99.90
15452;DHT22;7827;53.594;9.938;2023-05-25T04:52:05;10.70;99.90
15452;DHT22;7827;53.594;9.938;2023-05-25T04:54:35;10.80;99.90
15452;DHT22;7827;53.594;9.938;2023-05-25T04:57:04;10.80;99.90
15452;DHT22;7827;53.594;9.938;2023-05-25T04:59:33;10.80;99.90
15452;DHT22;7827;53.594;9.938;2023-05-25T05:02:03;10.80;99.90
15452;DHT22;7827;53.594;9.938;2023-05-25T05:04:31;11.10;99.90
15452;DHT22;7827;53.594;9.938;2023-05-25T05:07:00;11.20;99.90
15452;DHT22;7827;53.594;9.938;2023-05-25T05:09:29;11.30;99.90
15452;DHT22;7827;53.594;9.938;2023-05-25T05:12:01;11.30;99.90
15452;DHT22;7827;53.594;9.938;2023-05-25T05:14:34;11.30;99.90
15452;DHT22;7827;53.594;9.938;2023-05-25T05:17:03;11.30;99.90
15452;DHT22;7827;53.594;9.938;2023-05-25T05:19:32;11.30;99.90
15452;DHT22;7827;53.594;9.938;2023-05-25T05:22:02;11.50;99.90
15452;DHT22;7827;53.594;9.938;2023-05-25T05:24:30;11.60;99.90
15452;DHT22;7827;53.594;9.938;2023-05-25T05:26:58;11.70;99.90
15452;DHT22;7827;53.594;9.938;2023-05-25T05:29:42;11.80;99.90
15452;DHT22;7827;53.594;9.938;2023-05-25T05:32:11;11.80;63.80
15452;DHT22;7827;53.594;9.938;2023-05-25T05:34:39;11.80;82.60
15452;DHT22;7827;53.594;9.938;2023-05-25T05:37:18;11.90;95.40
15452;DHT22;7827;53.594;9.938;2023-05-25T05:39:47;12.00;69.80
15452;DHT22;7827;53.594;9.938;2023-05-25T05:42:16;12.00;68.00
15452;DHT22;7827;53.594;9.938;2023-05-25T05:44:45;12.10;78.10
15452;DHT22;7827;53.594;9.938;2023-05-25T05:47:13;12.20;72.60
15452;DHT22;7827;53.594;9.938;2023-05-25T05:49:41;12.30;58.00
15452;DHT22;7827;53.594;9.938;2023-05-25T05:52:10;12.40;37.50
15452;DHT22;7827;53.594;9.938;2023-05-25T05:54:38;12.40;9.90
15452;DHT22;7827;53.594;9.938;2023-05-25T05:57:10;12.40;33.30
15452;DHT22;7827;53.594;9.938;2023-05-25T05:59:40;12.50;1.00
15452;DHT22;7827;53.594;9.938;2023-05-25T06:02:08;12.50;13.90
15452;DHT22;7827;53.594;9.938;2023-05-25T06:04:37;12.50;18.40
15452;DHT22;7827;53.594;9.938;2023-05-25T06:07:07;12.60;1.00
15452;DHT22;7827;53.594;9.938;2023-05-25T06:09:35;12.60;1.00
15452;DHT22;7827;53.594;9.938;2023-05-25T06:12:04;12.60;1.00
15452;DHT22;7827;53.594;9.938;2023-05-25T06:14:33;12.70;1.00
15452;DHT22;7827;53.594;9.938;2023-05-25T06:17:05;12.70;1.00
15452;DHT22;7827;53.594;9.938;2023-05-25T06:19:34;12.70;1.00
15452;DHT22;7827;53.594;9.938;2023-05-25T06:22:02;12.80;1.00
15452;DHT22;7827;53.594;9.938;2023-05-25T06:24:31;12.90;1.00
15452;DHT22;7827;53.594;9.938;2023-05-25T06:26:59;12.90;1.00
15452;DHT22;7827;53.594;9.938;2023-05-25T06:29:29;12.90;1.00
15452;DHT22;7827;53.594;9.938;2023-05-25T06:31:58;12.90;1.00
15452;DHT22;7827;53.594;9.938;2023-05-25T06:34:28;12.90;1.00
15452;DHT22;7827;53.594;9.938;2023-05-25T06:36:56;12.90;1.00
15452;DHT22;7827;53.594;9.938;2023-05-25T06:39:25;13.00;1.00
15452;DHT22;7827;53.594;9.938;2023-05-25T06:41:53;13.10;1.00
15452;DHT22;7827;53.594;9.938;2023-05-25T06:44:28;13.20;1.00
15452;DHT22;7827;53.594;9.938;2023-05-25T06:47:00;13.20;1.00
15452;DHT22;7827;53.594;9.938;2023-05-25T06:49:31;13.10;1.00
15452;DHT22;7827;53.594;9.938;2023-05-25T06:51:59;13.10;1.00
15452;DHT22;7827;53.594;9.938;2023-05-25T06:54:28;13.20;1.00
15452;DHT22;7827;53.594;9.938;2023-05-25T06:56:56;13.40;1.00
15452;DHT22;7827;53.594;9.938;2023-05-25T06:59:24;13.60;1.00
15452;DHT22;7827;53.594;9.938;2023-05-25T07:01:53;13.60;1.00
15452;DHT22;7827;53.594;9.938;2023-05-25T07:04:22;13.50;1.00
15452;DHT22;7827;53.594;9.938;2023-05-25T07:06:52;13.40;1.00
15452;DHT22;7827;53.594;9.938;2023-05-25T07:09:20;13.20;1.00
15452;DHT22;7827;53.594;9.938;2023-05-25T07:11:48;13.20;1.00
15452;DHT22;7827;53.594;9.938;2023-05-25T07:14:17;13.30;99.90
15452;DHT22;7827;53.594;9.938;2023-05-25T07:16:45;13.30;99.90
15452;DHT22;7827;53.594;9.938;2023-05-25T07:19:14;13.20;1.00
15452;DHT22;7827;53.594;9.938;2023-05-25T07:21:42;13.30;99.90
15452;DHT22;7827;53.594;9.938;2023-05-25T07:24:12;13.40;73.70
15452;DHT22;7827;53.594;9.938;2023-05-25T07:26:40;13.70;99.90
15452;DHT22;7827;53.594;9.938;2023-05-25T07:29:10;14.00;99.90
15452;DHT22;7827;53.594;9.938;2023-05-25T07:31:39;14.10;33.30
15452;DHT22;7827;53.594;9.938;2023-05-25T07:34:07;14.20;1.00
15452;DHT22;7827;53.594;9.938;2023-05-25T07:36:35;14.10;1.00
15452;DHT22;7827;53.594;9.938;2023-05-25T07:39:04;14.20;99.90
15452;DHT22;7827;53.594;9.938;2023-05-25T07:41:34;14.20;99.90
15452;DHT22;7827;53.594;9.938;2023-05-25T07:44:02;14.20;1.00
15452;DHT22;7827;53.594;9.938;2023-05-25T07:46:30;14.10;99.90
15452;DHT22;7827;53.594;9.938;2023-05-25T07:48:59;14.20;99.90
15452;DHT22;7827;53.594;9.938;2023-05-25T07:51:29;14.30;99.90
15452;DHT22;7827;53.594;9.938;2023-05-25T07:53:58;14.30;99.90
15452;DHT22;7827;53.594;9.938;2023-05-25T07:56:27;14.30;1.00
15452;DHT22;7827;53.594;9.938;2023-05-25T07:58:56;14.40;1.00
15452;DHT22;7827;53.594;9.938;2023-05-25T08:01:26;14.60;1.00
15452;DHT22;7827;53.594;9.938;2023-05-25T08:03:54;14.80;1.00
15452;DHT22;7827;53.594;9.938;2023-05-25T08:06:23;14.80;1.00
15452;DHT22;7827;53.594;9.938;2023-05-25T08:08:51;14.80;99.90
15452;DHT22;7827;53.594;9.938;2023-05-25T08:11:22;14.90;99.90
15452;DHT22;7827;53.594;9.938;2023-05-25T08:13:52;15.20;99.90
15452;DHT22;7827;53.594;9.938;2023-05-25T08:16:22;15.30;99.90
15452;DHT22;7827;53.594;9.938;2023-05-25T08:18:50;15.30;99.90
15452;DHT22;7827;53.594;9.938;2023-05-25T08:21:18;15.40;1.00
15452;DHT22;7827;53.594;9.938;2023-05-25T08:23:51;15.50;1.00
15452;DHT22;7827;53.594;9.938;2023-05-25T08:26:34;15.50;99.90
15452;DHT22;7827;53.594;9.938;2023-05-25T08:29:20;15.40;99.90
15452;DHT22;7827;53.594;9.938;2023-05-25T08:31:50;15.30;99.90
15452;DHT22;7827;53.594;9.938;2023-05-25T08:34:18;15.50;93.20
15452;DHT22;7827;53.594;9.938;2023-05-25T08:36:46;15.50;1.00
15452;DHT22;7827;53.594;9.938;2023-05-25T08:39:15;15.50;99.90
15452;DHT22;7827;53.594;9.938;2023-05-25T08:41:44;15.50;99.90
15452;DHT22;7827;53.594;9.938;2023-05-25T08:44:13;15.60;25.70
15452;DHT22;7827;53.594;9.938;2023-05-25T08:46:41;15.60;99.90
15452;DHT22;7827;53.594;9.938;2023-05-25T08:49:13;15.60;1.00
15452;DHT22;7827;53.594;9.938;2023-05-25T08:51:47;15.60;97.10
15452;DHT22;7827;53.594;9.938;2023-05-25T08:54:17;15.70;1.00
15452;DHT22;7827;53.594;9.938;2023-05-25T08:56:49;15.80;99.90
15452;DHT22;7827;53.594;9.938;2023-05-25T08:59:27;16.10;1.00
15452;DHT22;7827;53.594;9.938;2023-05-25T09:02:16;16.30;82.40
15452;DHT22;7827;53.594;9.938;2023-05-25T09:04:51;16.40;99.90
15452;DHT22;7827;53.594;9.938;2023-05-25T09:07:20;16.60;99.90
15452;DHT22;7827;53.594;9.938;2023-05-25T09:09:49;16.50;99.90
15452;DHT22;7827;53.594;9.938;2023-05-25T09:12:19;16.40;1.00
15452;DHT22;7827;53.594;9.938;2023-05-25T09:14:49;16.20;25.30
15452;DHT22;7827;53.594;9.938;2023-05-25T09:17:18;16.20;99.90
15452;DHT22;7827;53.594;9.938;2023-05-25T09:19:47;16.30;1.00
15452;DHT22;7827;53.594;9.938;2023-05-25T09:22:18;16.40;99.90
15452;DHT22;7827;53.594;9.938;2023-05-25T09:24:47;16.60;1.00
15452;DHT22;7827;53.594;9.938;2023-05-25T09:27:17;16.30;1.00
15452;DHT22;7827;53.594;9.938;2023-05-25T09:29:49;16.40;1.00
15452;DHT22;7827;53.594;9.938;2023-05-25T09:32:18;16.40;1.00
15452;DHT22;7827;53.594;9.938;2023-05-25T09:34:47;16.40;1.00
15452;DHT22;7827;53.594;9.938;2023-05-25T09:37:16;16.40;1.00
15452;DHT22;7827;53.594;9.938;2023-05-25T09:39:46;16.30;99.90
15452;DHT22;7827;53.594;9.938;2023-05-25T09:42:16;16.30;1.00
15452;DHT22;7827;53.594;9.938;2023-05-25T09:44:44;16.50;1.00
15452;DHT22;7827;53.594;9.938;2023-05-25T09:47:12;16.50;1.00
15452;DHT22;7827;53.594;9.938;2023-05-25T09:49:43;16.60;1.00
15452;DHT22;7827;53.594;9.938;2023-05-25T09:52:13;16.70;99.90
15452;DHT22;7827;53.594;9.938;2023-05-25T09:54:44;16.90;99.90
15452;DHT22;7827;53.594;9.938;2023-05-25T09:57:13;17.00;99.90
15452;DHT22;7827;53.594;9.938;2023-05-25T09:59:42;17.00;99.90
15452;DHT22;7827;53.594;9.938;2023-05-25T10:02:12;17.20;1.00
15452;DHT22;7827;53.594;9.938;2023-05-25T10:04:41;17.30;1.00
15452;DHT22;7827;53.594;9.938;2023-05-25T10:07:10;17.40;99.90
15452;DHT22;7827;53.594;9.938;2023-05-25T10:09:41;17.40;1.00
15452;DHT22;7827;53.594;9.938;2023-05-25T10:12:16;17.40;1.00
15452;DHT22;7827;53.594;9.938;2023-05-25T10:14:49;17.20;99.90
15452;DHT22;7827;53.594;9.938;2023-05-25T10:17:22;17.00;1.00
15452;DHT22;7827;53.594;9.938;2023-05-25T10:19:54;17.00;1.00
15452;DHT22;7827;53.594;9.938;2023-05-25T10:22:31;17.00;1.00
15452;DHT22;7827;53.594;9.938;2023-05-25T10:25:08;17.00;1.00
15452;DHT22;7827;53.594;9.938;2023-05-25T10:27:47;17.20;99.90
15452;DHT22;7827;53.594;9.938;2023-05-25T10:30:24;17.30;99.90
15452;DHT22;7827;53.594;9.938;2023-05-25T10:32:54;17.30;99.90
15452;DHT22;7827;53.594;9.938;2023-05-25T10:35:23;17.30;1.00
15452;DHT22;7827;53.594;9.938;2023-05-25T10:37:53;17.40;99.90
15452;DHT22;7827;53.594;9.938;2023-05-25T10:40:23;17.60;1.00
15452;DHT22;7827;53.594;9.938;2023-05-25T10:42:51;17.70;1.00
15452;DHT22;7827;53.594;9.938;2023-05-25T10:45:20;17.60;99.90
15452;DHT22;7827;53.594;9.938;2023-05-25T10:47:50;17.50;99.90
15452;DHT22;7827;53.594;9.938;2023-05-25T10:50:20;17.30;1.00
15452;DHT22;7827;53.594;9.938;2023-05-25T10:53:00;17.20;99.90
15452;DHT22;7827;53.594;9.938;2023-05-25T10:55:41;17.40;1.00
15452;DHT22;7827;53.594;9.938;2023-05-25T10:58:12;17.50;1.00
15452;DHT22;7827;53.594;9.938;2023-05-25T11:00:55;17.40;1.00
15452;DHT22;7827;53.594;9.938;2023-05-25T11:03:49;17.40;1.00
15452;DHT22;7827;53.594;9.938;2023-05-25T11:06:22;17.20;1.00
15452;DHT22;7827;53.594;9.938;2023-05-25T11:09:23;17.20;84.20
15452;DHT22;7827;53.594;9.938;2023-05-25T11:12:04;17.10;1.00
15452;DHT22;7827;53.594;9.938;2023-05-25T11:14:33;17.30;1.00
15452;DHT22;7827;53.594;9.938;2023-05-25T11:17:05;17.40;99.90
15452;DHT22;7827;53.594;9.938;2023-05-25T11:19:44;17.40;99.90
15452;DHT22;7827;53.594;9.938;2023-05-25T11:22:18;17.50;99.90
15452;DHT22;7827;53.594;9.938;2023-05-25T11:24:49;17.60;99.90
15452;DHT22;7827;53.594;9.938;2023-05-25T11:27:22;17.60;99.90
15452;DHT22;7827;53.594;9.938;2023-05-25T11:29:52;17.60;1.00
15452;DHT22;7827;53.594;9.938;2023-05-25T11:32:23;17.60;99.90
15452;DHT22;7827;53.594;9.938;2023-05-25T11:34:54;17.70;1.00
15452;DHT22;7827;53.594;9.938;2023-05-25T11:37:25;17.90;99.90
15452;DHT22;7827;53.594;9.938;2023-05-25T11:39:57;18.00;1.00
15452;DHT22;7827;53.594;9.938;2023-05-25T11:42:28;18.00;99.90
15452;DHT22;7827;53.594;9.938;2023-05-25T11:45:00;18.00;1.00
15452;DHT22;7827;53.594;9.938;2023-05-25T11:47:30;18.10;99.90
15452;DHT22;7827;53.594;9.938;2023-05-25T11:50:00;18.10;1.00
15452;DHT22;7827;53.594;9.938;2023-05-25T11:52:29;18.10;1.00
15452;DHT22;7827;53.594;9.938;2023-05-25T11:54:58;17.80;1.00
15452;DHT22;7827;53.594;9.938;2023-05-25T11:57:27;17.50;1.00
15452;DHT22;7827;53.594;9.938;2023-05-25T11:59:57;17.50;99.90
15452;DHT22;7827;53.594;9.938;2023-05-25T12:02:36;17.50;99.90
15452;DHT22;7827;53.594;9.938;2023-05-25T12:05:05;17.60;99.90
15452;DHT22;7827;53.594;9.938;2023-05-25T12:07:42;17.70;1.00
15452;DHT22;7827;53.594;9.938;2023-05-25T12:10:13;17.90;99.90
15452;DHT22;7827;53.594;9.938;2023-05-25T12:12:45;18.10;1.00
15452;DHT22;7827;53.594;9.938;2023-05-25T12:15:16;18.20;99.90
15452;DHT22;7827;53.594;9.938;2023-05-25T12:17:48;18.10;1.00
15452;DHT22;7827;53.594;9.938;2023-05-25T12:20:18;18.30;1.00
15452;DHT22;7827;53.594;9.938;2023-05-25T12:22:47;18.40;1.00
15452;DHT22;7827;53.594;9.938;2023-05-25T12:25:19;18.20;1.00
15452;DHT22;7827;53.594;9.938;2023-05-25T12:28:08;18.20;99.90
15452;DHT22;7827;53.594;9.938;2023-05-25T12:30:37;18.40;1.00
15452;DHT22;7827;53.594;9.938;2023-05-25T12:33:06;18.30;99.90
15452;DHT22;7827;53.594;9.938;2023-05-25T12:35:44;18.20;1.00
15452;DHT22;7827;53.594;9.938;2023-05-25T12:38:15;18.30;1.00
15452;DHT22;7827;53.594;9.938;2023-05-25T12:40:44;18.30;99.90
15452;DHT22;7827;53.594;9.938;2023-05-25T12:43:15;18.40;1.00
15452;DHT22;7827;53.594;9.938;2023-05-25T12:45:43;18.40;99.90
15452;DHT22;7827;53.594;9.938;2023-05-25T12:48:12;18.40;99.90
15452;DHT22;7827;53.594;9.938;2023-05-25T12:50:55;18.60;1.00
15452;DHT22;7827;53.594;9.938;2023-05-25T12:53:24;18.60;1.00
15452;DHT22;7827;53.594;9.938;2023-05-25T12:56:00;18.70;1.00
15452;DHT22;7827;53.594;9.938;2023-05-25T12:58:30;18.60;1.00
15452;DHT22;7827;53.594;9.938;2023-05-25T13:00:59;18.70;99.90
15452;DHT22;7827;53.594;9.938;2023-05-25T13:03:27;18.60;99.90
15452;DHT22;7827;53.594;9.938;2023-05-25T13:05:59;18.60;99.90
15452;DHT22;7827;53.594;9.938;2023-05-25T13:08:28;18.40;1.00
15452;DHT22;7827;53.594;9.938;2023-05-25T13:10:57;18.40;1.00
15452;DHT22;7827;53.594;9.938;2023-05-25T13:13:26;18.40;1.00
15452;DHT22;7827;53.594;9.938;2023-05-25T13:15:55;18.40;1.00
15452;DHT22;7827;53.594;9.938;2023-05-25T13:18:24;18.40;6.20
15452;DHT22;7827;53.594;9.938;2023-05-25T13:20:52;18.40;1.00
15452;DHT22;7827;53.594;9.938;2023-05-25T13:23:23;18.30;93.70
15452;DHT22;7827;53.594;9.938;2023-05-25T13:25:51;18.40;1.00
15452;DHT22;7827;53.594;9.938;2023-05-25T13:28:20;18.50;99.90
15452;DHT22;7827;53.594;9.938;2023-05-25T13:30:51;18.60;99.90
15452;DHT22;7827;53.594;9.938;2023-05-25T13:33:21;18.50;1.00
15452;DHT22;7827;53.594;9.938;2023-05-25T13:35:49;18.40;1.00
15452;DHT22;7827;53.594;9.938;2023-05-25T13:38:25;18.60;1.00
15452;DHT22;7827;53.594;9.938;2023-05-25T13:40:55;18.50;99.90
15452;DHT22;7827;53.594;9.938;2023-05-25T13:43:23;18.60;99.90
15452;DHT22;7827;53.594;9.938;2023-05-25T13:45:52;18.80;99.90
15452;DHT22;7827;53.594;9.938;2023-05-25T13:48:22;18.90;1.00
15452;DHT22;7827;53.594;9.938;2023-05-25T13:50:50;18.80;99.90
15452;DHT22;7827;53.594;9.938;2023-05-25T13:53:19;18.70;1.00
15452;DHT22;7827;53.594;9.938;2023-05-25T13:55:47;18.60;1.00
15452;DHT22;7827;53.594;9.938;2023-05-25T13:58:16;18.50;1.00
15452;DHT22;7827;53.594;9.938;2023-05-25T14:00:44;18.50;1.00
15452;DHT22;7827;53.594;9.938;2023-05-25T14:03:13;18.60;36.00
15452;DHT22;7827;53.594;9.938;2023-05-25T14:05:43;18.80;29.90
15452;DHT22;7827;53.594;9.938;2023-05-25T14:08:11;18.80;22.80
15452;DHT22;7827;53.594;9.938;2023-05-25T14:10:40;18.80;1.00
15452;DHT22;7827;53.594;9.938;2023-05-25T14:13:10;18.80;1.00
15452;DHT22;7827;53.594;9.938;2023-05-25T14:15:38;18.90;99.90
15452;DHT22;7827;53.594;9.938;2023-05-25T14:18:07;19.00;99.90
15452;DHT22;7827;53.594;9.938;2023-05-25T14:20:35;19.10;1.00
15452;DHT22;7827;53.594;9.938;2023-05-25T14:23:07;19.10;99.90
15452;DHT22;7827;53.594;9.938;2023-05-25T14:25:39;19.10;99.90
15452;DHT22;7827;53.594;9.938;2023-05-25T14:28:08;19.10;1.00
15452;DHT22;7827;53.594;9.938;2023-05-25T14:30:36;19.00;99.90
15452;DHT22;7827;53.594;9.938;2023-05-25T14:33:04;18.80;1.00
15452;DHT22;7827;53.594;9.938;2023-05-25T14:35:33;19.00;1.00
15452;DHT22;7827;53.594;9.938;2023-05-25T14:38:01;19.00;1.00
15452;DHT22;7827;53.594;9.938;2023-05-25T14:40:31;19.30;99.90
15452;DHT22;7827;53.594;9.938;2023-05-25T14:42:59;19.30;99.90
15452;DHT22;7827;53.594;9.938;2023-05-25T14:45:28;19.40;1.00
15452;DHT22;7827;53.594;9.938;2023-05-25T14:47:56;19.10;1.00
15452;DHT22;7827;53.594;9.938;2023-05-25T14:50:41;19.20;99.90
15452;DHT22;7827;53.594;9.938;2023-05-25T14:53:10;19.40;1.00
15452;DHT22;7827;53.594;9.938;2023-05-25T14:55:40;19.30;99.90
15452;DHT22;7827;53.594;9.938;2023-05-25T14:58:09;19.20;1.00
15452;DHT22;7827;53.594;9.938;2023-05-25T15:00:38;19.20;99.90
15452;DHT22;7827;53.594;9.938;2023-05-25T15:03:06;19.20;1.00
15452;DHT22;7827;53.594;9.938;2023-05-25T15:05:34;19.20;1.00
15452;DHT22;7827;53.594;9.938;2023-05-25T15:08:03;19.20;1.00
15452;DHT22;7827;53.594;9.938;2023-05-25T15:10:31;19.40;1.00
15452;DHT22;7827;53.594;9.938;2023-05-25T15:13:01;19.50;64.30
15452;DHT22;7827;53.594;9.938;2023-05-25T15:15:29;19.60;99.90
15452;DHT22;7827;53.594;9.938;2023-05-25T15:17:58;19.50;1.00
15452;DHT22;7827;53.594;9.938;2023-05-25T15:20:26;19.50;2.30
15452;DHT22;7827;53.594;9.938;2023-05-25T15:22:54;19.40;99.90
15452;DHT22;7827;53.594;9.938;2023-05-25T15:25:23;19.40;1.00
15452;DHT22;7827;53.594;9.938;2023-05-25T15:27:57;19.40;1.00
15452;DHT22;7827;53.594;9.938;2023-05-25T15:30:26;19.40;76.80
15452;DHT22;7827;53.594;9.938;2023-05-25T15:32:55;19.60;99.90
15452;DHT22;7827;53.594;9.938;2023-05-25T15:35:23;19.60;1.00
15452;DHT22;7827;53.594;9.938;2023-05-25T15:37:56;19.60;1.00
15452;DHT22;7827;53.594;9.938;2023-05-25T15:40:25;19.40;1.00
15452;DHT22;7827;53.594;9.938;2023-05-25T15:42:53;19.20;99.90
15452;DHT22;7827;53.594;9.938;2023-05-25T15:45:22;19.40;1.00
15452;DHT22;7827;53.594;9.938;2023-05-25T15:47:52;19.30;99.90
15452;DHT22;7827;53.594;9.938;2023-05-25T15:50:20;19.20;1.00
15452;DHT22;7827;53.594;9.938;2023-05-25T15:52:49;19.20;99.90
15452;DHT22;7827;53.594;9.938;2023-05-25T15:55:18;19.00;1.00
15452;DHT22;7827;53.594;9.938;2023-05-25T15:57:46;19.00;1.00
15452;DHT22;7827;53.594;9.938;2023-05-25T16:00:15;18.90;99.90
15452;DHT22;7827;53.594;9.938;2023-05-25T16:02:44;19.00;1.00
15452;DHT22;7827;53.594;9.938;2023-05-25T16:05:13;19.10;1.00
15452;DHT22;7827;53.594;9.938;2023-05-25T16:07:42;19.10;1.00
15452;DHT22;7827;53.594;9.938;2023-05-25T16:10:10;19.20;99.90
15452;DHT22;7827;53.594;9.938;2023-05-25T16:12:38;19.30;99.90
15452;DHT22;7827;53.594;9.938;2023-05-25T16:15:07;19.20;99.90